Time;durP1;ratioP1;P1;durP2;ratioP2;P2;SDS_P1;SDS_P2;PMS_P1;PMS_P2;Temp;Humidity;BMP_temperature;BMP_pressure;BME280_temperature;BME280_humidity;BME280_pressure;Samples;Min_cycle;Max_cycle;Signal;HPM_P1;HPM_P2
2022/05/04 00:01:27;;;;;;;10.30;3.55;;;8.40;99.90;;;;;;5030154;28;20128;-72
2022/05/04 00:03:53;;;;;;;7.28;3.22;;;8.30;99.90;;;;;;5030504;28;20041;-72
2022/05/04 00:06:19;;;;;;;7.45;2.65;;;8.30;99.90;;;;;;5014072;28;20045;-73
2022/05/04 00:08:44;;;;;;;10.25;3.33;;;8.30;99.90;;;;;;5030678;28;20041;-72
2022/05/04 00:11:10;;;;;;;11.25;3.20;;;8.40;99.90;;;;;;5030247;28;20041;-72
2022/05/04 00:13:36;;;;;;;9.98;3.22;;;8.40;99.90;;;;;;5030260;28;20037;-72
2022/05/04 00:16:01;;;;;;;13.50;3.60;;;8.40;99.90;;;;;;5030230;28;20045;-72
2022/05/04 00:18:30;;;;;;;9.15;3.67;;;8.40;99.90;;;;;;5031006;28;20041;-72
2022/05/04 00:20:57;;;;;;;8.10;3.58;;;8.40;99.90;;;;;;5030213;28;20048;-72
2022/05/04 00:23:23;;;;;;;8.82;2.65;;;8.50;99.90;;;;;;5030782;28;20041;-72
2022/05/04 00:25:49;;;;;;;7.00;2.55;;;8.50;99.90;;;;;;5031725;28;20041;-72
2022/05/04 00:28:15;;;;;;;9.95;2.88;;;8.50;99.90;;;;;;5030106;28;20133;-72
2022/05/04 00:30:40;;;;;;;12.82;3.28;;;8.50;99.90;;;;;;5031335;28;20140;-71
2022/05/04 00:33:06;;;;;;;11.30;3.05;;;8.50;99.90;;;;;;5030491;28;20064;-71
2022/05/04 00:35:32;;;;;;;5.93;2.85;;;8.50;99.90;;;;;;5030433;28;20060;-72
2022/05/04 00:37:58;;;;;;;7.50;2.78;;;8.50;99.90;;;;;;5030419;28;20053;-72
2022/05/04 00:40:23;;;;;;;10.75;3.22;;;8.50;99.90;;;;;;5031444;28;20045;-73
2022/05/04 00:42:49;;;;;;;10.70;3.53;;;8.50;99.90;;;;;;5030337;28;20041;-72
2022/05/04 00:45:15;;;;;;;7.88;2.70;;;8.50;99.90;;;;;;5030547;28;20037;-72
2022/05/04 00:47:40;;;;;;;9.70;3.45;;;8.50;99.90;;;;;;5030094;28;20050;-72
2022/05/04 00:50:07;;;;;;;17.58;3.10;;;8.50;99.90;;;;;;5031255;28;20411;-72
2022/05/04 00:52:36;;;;;;;6.53;2.38;;;8.50;99.90;;;;;;5013846;28;20041;-72
2022/05/04 00:55:05;;;;;;;5.88;2.80;;;8.50;99.90;;;;;;5030294;28;20041;-72
2022/05/04 01:00:18;;;;;;;9.10;3.30;;;8.50;99.90;;;;;;5031362;28;20049;-72
2022/05/04 01:02:44;;;;;;;10.30;3.05;;;8.50;99.90;;;;;;5030145;28;20049;-72
2022/05/04 01:05:10;;;;;;;8.98;2.50;;;8.50;99.80;;;;;;5030105;28;20064;-72
2022/05/04 01:07:41;;;;;;;8.48;2.97;;;8.50;99.90;;;;;;5030126;28;20124;-72
2022/05/04 01:10:08;;;;;;;6.40;2.85;;;8.50;99.90;;;;;;5029769;28;20499;-72
2022/05/04 01:12:34;;;;;;;8.18;3.33;;;8.50;99.40;;;;;;5030047;28;20044;-72
2022/05/04 01:15:00;;;;;;;6.47;2.65;;;8.60;98.80;;;;;;5030037;28;20080;-72
2022/05/04 01:17:29;;;;;;;5.35;3.50;;;8.60;98.40;;;;;;5030137;28;20110;-72
2022/05/04 01:19:59;;;;;;;9.48;2.42;;;8.60;99.10;;;;;;5029744;28;20045;-72
2022/05/04 01:22:24;;;;;;;7.35;2.08;;;8.60;99.90;;;;;;5030201;28;20049;-72
2022/05/04 01:24:50;;;;;;;7.75;3.60;;;8.60;99.50;;;;;;5029960;28;20092;-72
2022/05/04 01:27:16;;;;;;;5.43;2.55;;;8.60;99.30;;;;;;5034636;28;20077;-72
2022/05/04 01:29:42;;;;;;;11.70;2.30;;;8.60;99.80;;;;;;5033591;28;20077;-72
2022/05/04 01:32:08;;;;;;;9.40;3.83;;;8.60;99.90;;;;;;5017135;28;20039;-72
2022/05/04 01:34:34;;;;;;;13.93;3.95;;;8.70;99.90;;;;;;5016769;28;20048;-72
2022/05/04 01:37:01;;;;;;;15.13;3.38;;;8.70;99.90;;;;;;5033290;28;20120;-72
2022/05/04 01:39:26;;;;;;;8.32;2.50;;;8.70;99.90;;;;;;5033406;28;20090;-72
2022/05/04 01:42:05;;;;;;;10.45;3.15;;;8.70;99.90;;;;;;5032964;28;20041;-72
2022/05/04 01:44:32;;;;;;;7.75;2.58;;;8.60;99.90;;;;;;5033386;28;20078;-72
2022/05/04 01:46:58;;;;;;;7.57;2.55;;;8.70;99.90;;;;;;5033246;28;20057;-72
2022/05/04 01:49:23;;;;;;;8.55;2.67;;;8.70;99.90;;;;;;5034511;28;20045;-72
2022/05/04 01:51:49;;;;;;;13.35;3.13;;;8.60;99.90;;;;;;5033100;28;20045;-72
2022/05/04 01:54:14;;;;;;;10.95;2.85;;;8.60;99.90;;;;;;5016931;28;20034;-72
2022/05/04 01:56:40;;;;;;;6.68;2.55;;;8.60;99.90;;;;;;5016594;28;20033;-72
2022/05/04 01:59:06;;;;;;;9.00;2.65;;;8.50;99.90;;;;;;5033352;28;20381;-72
2022/05/04 02:01:31;;;;;;;7.20;2.78;;;8.50;99.90;;;;;;5033035;28;20553;-72
2022/05/04 02:03:58;;;;;;;8.15;3.00;;;8.50;99.90;;;;;;5034296;28;20099;-72
2022/05/04 02:06:24;;;;;;;10.88;3.50;;;8.50;99.90;;;;;;5034014;28;20048;-72
2022/05/04 02:08:50;;;;;;;8.02;3.30;;;8.50;99.90;;;;;;5032852;28;20034;-72
2022/05/04 02:11:16;;;;;;;10.00;2.90;;;8.60;99.90;;;;;;5033925;28;20112;-72
2022/05/04 02:13:42;;;;;;;9.68;3.05;;;8.50;99.90;;;;;;5034119;28;20474;-72
2022/05/04 02:16:07;;;;;;;6.38;2.53;;;8.50;99.90;;;;;;5032787;28;20092;-72
2022/05/04 02:18:33;;;;;;;7.45;3.00;;;8.50;99.90;;;;;;5032797;28;20055;-72
2022/05/04 02:20:59;;;;;;;11.10;3.33;;;8.60;99.90;;;;;;5032331;28;20044;-72
2022/05/04 02:23:25;;;;;;;7.20;2.72;;;8.50;99.90;;;;;;5033836;28;20384;-72
2022/05/04 02:25:50;;;;;;;16.55;3.05;;;8.50;99.90;;;;;;5032825;28;20042;-72
2022/05/04 02:28:16;;;;;;;13.35;3.00;;;8.60;99.90;;;;;;5032382;28;20050;-72
2022/05/04 02:30:44;;;;;;;8.68;2.42;;;8.60;99.90;;;;;;5032278;28;20052;-72
2022/05/04 02:33:10;;;;;;;8.48;2.78;;;8.60;99.90;;;;;;5032370;28;20041;-72
2022/05/04 02:38:21;;;;;;;9.10;3.38;;;8.60;99.90;;;;;;5031043;28;20049;-72
2022/05/04 02:40:48;;;;;;;8.80;2.75;;;8.60;99.90;;;;;;5031803;28;20056;-72
2022/05/04 02:43:13;;;;;;;7.10;2.40;;;8.60;99.90;;;;;;5032181;28;20041;-72
2022/05/04 02:45:39;;;;;;;7.82;2.75;;;8.60;99.90;;;;;;5032182;28;20038;-72
2022/05/04 02:48:06;;;;;;;8.23;2.60;;;8.60;99.90;;;;;;5031837;28;20115;-72
2022/05/04 02:50:32;;;;;;;7.50;2.90;;;8.50;99.90;;;;;;5031876;28;20152;-72
2022/05/04 02:52:57;;;;;;;5.93;2.35;;;8.50;99.90;;;;;;5032084;28;20053;-72
2022/05/04 02:55:23;;;;;;;7.10;2.92;;;8.50;99.90;;;;;;5033404;28;20038;-72
2022/05/04 02:57:48;;;;;;;9.27;3.55;;;8.50;99.90;;;;;;5031956;28;20044;-72
2022/05/04 03:00:14;;;;;;;11.25;2.78;;;8.50;99.90;;;;;;5031709;28;20038;-72
2022/05/04 03:02:40;;;;;;;12.68;3.10;;;8.50;99.90;;;;;;5032110;28;20030;-72
2022/05/04 03:05:08;;;;;;;8.30;2.53;;;8.50;99.90;;;;;;5031790;28;20080;-72
2022/05/04 03:07:34;;;;;;;6.90;2.80;;;8.50;99.90;;;;;;5032791;28;20542;-72
2022/05/04 03:10:00;;;;;;;8.30;3.05;;;8.50;99.90;;;;;;5031712;28;20388;-72
2022/05/04 03:12:26;;;;;;;4.90;2.45;;;8.40;99.90;;;;;;5033059;28;20033;-72
2022/05/04 03:14:52;;;;;;;10.32;2.97;;;8.40;99.90;;;;;;5031672;28;20487;-72
2022/05/04 03:17:18;;;;;;;8.77;2.60;;;8.40;99.90;;;;;;5032710;28;20503;-72
2022/05/04 03:19:44;;;;;;;8.40;2.92;;;8.40;99.90;;;;;;5015257;28;20563;-72
2022/05/04 03:22:10;;;;;;;9.70;3.20;;;8.40;99.90;;;;;;5032524;28;20045;-72
2022/05/04 03:24:36;;;;;;;10.98;3.13;;;8.50;99.90;;;;;;5015008;28;20033;-72
2022/05/04 03:27:02;;;;;;;12.02;2.75;;;8.50;99.90;;;;;;5032506;28;20449;-72
2022/05/04 03:29:28;;;;;;;11.00;2.65;;;8.50;99.90;;;;;;5032676;28;20042;-72
2022/05/04 03:31:53;;;;;;;9.68;3.13;;;8.50;99.90;;;;;;5014544;28;20069;-72
2022/05/04 03:34:19;;;;;;;7.38;2.63;;;8.50;99.90;;;;;;5032386;28;20033;-72
2022/05/04 03:36:48;;;;;;;7.75;2.58;;;8.40;99.90;;;;;;5031099;28;20048;-72
2022/05/04 03:39:14;;;;;;;10.27;2.88;;;8.40;99.90;;;;;;5031094;28;20045;-72
2022/05/04 03:41:40;;;;;;;7.30;2.88;;;8.40;99.90;;;;;;5031008;28;20098;-72
2022/05/04 03:44:06;;;;;;;10.73;3.30;;;8.40;99.90;;;;;;5031332;28;20507;-72
2022/05/04 03:46:49;;;;;;;11.70;2.90;;;8.30;99.90;;;;;;5030998;28;20041;-72
2022/05/04 03:49:16;;;;;;;11.80;3.42;;;8.40;99.90;;;;;;5031571;28;20040;-72
2022/05/04 03:51:43;;;;;;;9.68;2.58;;;8.30;99.90;;;;;;5030728;28;20048;-72
2022/05/04 03:54:09;;;;;;;10.40;2.85;;;8.30;99.90;;;;;;5030947;28;20042;-71
2022/05/04 03:56:36;;;;;;;10.57;3.30;;;8.30;99.90;;;;;;5030825;28;20125;-72
2022/05/04 03:59:03;;;;;;;10.50;2.53;;;8.30;99.90;;;;;;5030747;28;20044;-72
2022/05/04 04:01:29;;;;;;;7.57;2.53;;;8.40;99.90;;;;;;5030684;28;20507;-72
2022/05/04 04:03:54;;;;;;;6.93;3.05;;;8.40;99.90;;;;;;5030464;28;20037;-72
2022/05/04 04:06:20;;;;;;;13.27;3.20;;;8.50;99.90;;;;;;5031046;28;20069;-72
2022/05/04 04:08:46;;;;;;;7.38;3.28;;;8.40;99.90;;;;;;5031658;28;20067;-72
2022/05/04 04:11:11;;;;;;;4.00;2.25;;;8.40;99.90;;;;;;5014213;28;20121;-72
2022/05/04 04:13:38;;;;;;;9.52;3.17;;;8.40;99.90;;;;;;5030676;28;20491;-72
2022/05/04 04:16:04;;;;;;;10.07;3.03;;;8.40;99.90;;;;;;5014215;28;20037;-72
2022/05/04 04:18:29;;;;;;;7.10;2.92;;;8.40;99.90;;;;;;5030446;28;20045;-72
2022/05/04 04:23:40;;;;;;;7.07;2.85;;;8.40;99.90;;;;;;5030323;28;20136;-72
2022/05/04 04:26:07;;;;;;;6.88;3.53;;;8.40;99.90;;;;;;5030408;28;20037;-72
2022/05/04 04:28:34;;;;;;;9.23;3.10;;;8.30;99.90;;;;;;5030326;28;20051;-72
2022/05/04 04:31:00;;;;;;;11.63;3.47;;;8.40;99.90;;;;;;5029744;28;20073;-72
2022/05/04 04:33:29;;;;;;;9.93;3.63;;;8.40;99.90;;;;;;5031721;28;20041;-72
2022/05/04 04:35:55;;;;;;;11.82;3.15;;;8.30;99.90;;;;;;5030435;28;20052;-72
2022/05/04 04:38:21;;;;;;;15.35;3.17;;;8.30;99.90;;;;;;5030261;28;20048;-72
2022/05/04 04:40:47;;;;;;;8.18;2.70;;;8.30;99.90;;;;;;5031372;28;20038;-72
2022/05/04 04:43:13;;;;;;;5.45;2.67;;;8.40;99.90;;;;;;5030404;28;20087;-72
2022/05/04 04:45:39;;;;;;;7.53;2.50;;;8.30;99.90;;;;;;5030548;28;20045;-72
2022/05/04 04:48:05;;;;;;;5.25;2.00;;;8.40;99.90;;;;;;5031431;28;20581;-72
2022/05/04 04:50:30;;;;;;;9.82;2.60;;;8.40;99.90;;;;;;5030266;28;20033;-72
2022/05/04 04:52:56;;;;;;;6.93;2.63;;;8.50;99.90;;;;;;5030228;28;20518;-72
2022/05/04 04:55:22;;;;;;;7.43;2.45;;;8.50;99.00;;;;;;5031723;28;20073;-73
2022/05/04 04:57:47;;;;;;;7.40;2.50;;;8.60;98.20;;;;;;5030080;28;20045;-72
2022/05/04 05:00:14;;;;;;;5.20;2.30;;;8.60;99.90;;;;;;5030087;28;20130;-70
2022/05/04 05:02:40;;;;;;;8.18;2.55;;;8.60;99.90;;;;;;5034091;28;20053;-70
2022/05/04 05:05:07;;;;;;;12.05;2.80;;;8.60;99.90;;;;;;5034361;28;20049;-71
2022/05/04 05:07:32;;;;;;;6.93;2.47;;;8.60;99.90;;;;;;5035188;28;20495;-71
2022/05/04 05:09:58;;;;;;;9.60;2.70;;;8.60;99.90;;;;;;5035311;28;20035;-71
2022/05/04 05:12:23;;;;;;;5.90;2.47;;;8.70;99.90;;;;;;5034182;28;20081;-71
2022/05/04 05:17:35;;;;;;;10.75;3.28;;;8.60;99.90;;;;;;5015276;28;20042;-71
2022/05/04 05:20:02;;;;;;;10.70;3.22;;;8.60;99.90;;;;;;5013845;28;20038;-71
2022/05/04 05:22:27;;;;;;;13.27;3.47;;;8.60;99.90;;;;;;5013883;28;20042;-71
2022/05/04 05:24:53;;;;;;;8.05;2.83;;;8.70;99.90;;;;;;5013795;28;20053;-71
2022/05/04 05:27:18;;;;;;;8.40;2.90;;;8.70;99.90;;;;;;4997342;28;20670;-71
2022/05/04 05:29:44;;;;;;;8.45;3.15;;;8.70;99.90;;;;;;5013781;28;20041;-71
2022/05/04 05:32:09;;;;;;;11.63;3.83;;;8.70;99.90;;;;;;5013455;28;20040;-71
2022/05/04 05:34:35;;;;;;;9.05;3.15;;;8.70;99.90;;;;;;5013425;28;20042;-70
2022/05/04 05:37:01;;;;;;;10.98;2.55;;;8.70;99.90;;;;;;5015019;28;20048;-70
2022/05/04 05:39:27;;;;;;;9.05;2.78;;;8.70;99.90;;;;;;5015017;28;20038;-70
2022/05/04 05:41:52;;;;;;;12.40;3.00;;;8.70;99.90;;;;;;5014858;28;20128;-70
2022/05/04 05:44:18;;;;;;;10.07;2.80;;;8.70;99.90;;;;;;5013651;28;20104;-70
2022/05/04 05:46:44;;;;;;;10.85;2.80;;;8.70;99.90;;;;;;5013410;28;20056;-70
2022/05/04 05:49:10;;;;;;;7.20;2.92;;;8.70;99.90;;;;;;5051011;22;20397;-71
2022/05/04 05:51:35;;;;;;;8.30;2.90;;;8.80;99.90;;;;;;5033508;28;20168;-70
2022/05/04 05:54:01;;;;;;;12.13;2.70;;;8.80;99.90;;;;;;5034402;28;20399;-71
2022/05/04 05:56:26;;;;;;;9.35;2.95;;;8.70;99.90;;;;;;5033794;28;20060;-70
2022/05/04 05:58:52;;;;;;;7.97;2.75;;;8.70;99.90;;;;;;5032749;28;20045;-72
2022/05/04 06:01:17;;;;;;;12.43;2.70;;;8.70;99.90;;;;;;5033816;28;20041;-70
2022/05/04 06:03:43;;;;;;;8.02;2.72;;;8.70;99.90;;;;;;5033299;28;20037;-70
2022/05/04 06:06:09;;;;;;;7.47;2.03;;;8.70;99.90;;;;;;5032713;28;20043;-70
2022/05/04 06:08:34;;;;;;;11.40;3.88;;;8.80;98.90;;;;;;5033733;28;20056;-69
2022/05/04 06:11:00;;;;;;;8.05;2.65;;;8.80;98.90;;;;;;5033595;28;20377;-71
2022/05/04 06:13:25;;;;;;;9.15;2.50;;;8.90;99.00;;;;;;5031578;28;20044;-70
2022/05/04 06:15:51;;;;;;;7.00;2.80;;;8.90;99.00;;;;;;5034017;28;20491;-70
2022/05/04 06:18:17;;;;;;;8.82;2.30;;;8.90;98.80;;;;;;5033579;28;20132;-69
2022/05/04 06:20:42;;;;;;;4.90;2.05;;;8.90;99.00;;;;;;5032021;28;20045;-70
2022/05/04 06:23:08;;;;;;;9.00;2.20;;;9.00;99.40;;;;;;5033672;28;20048;-70
2022/05/04 06:25:35;;;;;;;14.60;3.28;;;9.00;99.10;;;;;;5032284;28;20257;-71
2022/05/04 06:28:01;;;;;;;9.73;1.88;;;9.00;98.50;;;;;;5032120;28;20042;-71
2022/05/04 06:35:55;;;;;;;10.07;3.67;;;9.10;94.30;;;;;;5033544;28;20053;-71
2022/05/04 06:38:20;;;;;;;6.68;3.25;;;9.10;96.50;;;;;;5033184;28;20541;-71
2022/05/04 06:40:46;;;;;;;7.40;2.80;;;9.10;96.40;;;;;;5032120;28;20037;-71
2022/05/04 06:43:11;;;;;;;9.18;2.05;;;9.10;95.60;;;;;;5032048;28;20517;-71
2022/05/04 06:45:37;;;;;;;10.35;2.83;;;9.20;94.30;;;;;;5033280;28;20061;-71
2022/05/04 06:48:03;;;;;;;4.10;1.92;;;9.20;92.70;;;;;;5032011;28;20052;-71
2022/05/04 06:50:29;;;;;;;11.90;2.88;;;9.20;91.60;;;;;;5032831;28;20029;-71
2022/05/04 06:52:54;;;;;;;5.60;1.88;;;9.00;89.00;;;;;;5031930;28;20107;-71
2022/05/04 06:55:20;;;;;;;7.18;1.85;;;9.10;89.20;;;;;;5033097;28;20029;-71
2022/05/04 06:57:46;;;;;;;5.57;2.05;;;9.10;87.40;;;;;;5032945;28;20086;-71
2022/05/04 07:00:12;;;;;;;7.07;2.15;;;9.00;85.70;;;;;;5014938;28;20152;-72
2022/05/04 07:02:38;;;;;;;7.00;2.40;;;9.10;84.40;;;;;;5031719;28;20073;-71
2022/05/04 07:05:05;;;;;;;7.15;2.67;;;9.20;82.30;;;;;;5032811;28;20080;-71
2022/05/04 07:07:31;;;;;;;9.93;2.42;;;9.20;82.60;;;;;;5031539;28;20068;-71
2022/05/04 07:09:57;;;;;;;7.38;2.58;;;9.20;82.60;;;;;;5026458;28;20034;-70
2022/05/04 07:12:22;;;;;;;8.35;2.17;;;9.20;82.00;;;;;;5027119;28;20045;-71
2022/05/04 07:14:48;;;;;;;5.78;1.73;;;9.20;81.80;;;;;;5028596;28;20033;-70
2022/05/04 07:17:13;;;;;;;10.52;2.20;;;9.20;81.50;;;;;;5031497;28;20078;-71
2022/05/04 07:19:39;;;;;;;6.80;2.00;;;9.30;82.70;;;;;;5031268;28;20046;-71
2022/05/04 07:22:04;;;;;;;5.32;2.30;;;9.30;86.70;;;;;;5032620;28;20053;-71
2022/05/04 07:24:30;;;;;;;10.38;2.47;;;9.40;90.30;;;;;;5031091;28;20041;-70
2022/05/04 07:26:56;;;;;;;5.47;2.00;;;9.50;90.50;;;;;;5032628;28;20045;-71
2022/05/04 07:29:22;;;;;;;11.77;2.35;;;9.60;89.10;;;;;;5031145;28;20037;-71
2022/05/04 07:31:47;;;;;;;4.72;1.90;;;9.60;90.80;;;;;;5030922;28;20041;-71
2022/05/04 07:34:14;;;;;;;6.28;2.10;;;9.70;91.20;;;;;;5032246;28;20044;-71
2022/05/04 07:36:40;;;;;;;8.32;2.63;;;9.70;88.90;;;;;;5031062;28;20072;-71
2022/05/04 07:39:05;;;;;;;7.10;2.17;;;9.80;90.90;;;;;;5031165;28;20037;-71
2022/05/04 07:44:15;;;;;;;9.05;2.35;;;9.90;86.10;;;;;;5032244;28;20041;-71
2022/05/04 07:46:42;;;;;;;7.20;2.35;;;9.90;83.40;;;;;;5032023;28;20033;-71
2022/05/04 07:49:07;;;;;;;8.95;2.28;;;9.80;79.60;;;;;;5031843;28;20049;-71
2022/05/04 07:51:33;;;;;;;6.35;2.22;;;9.90;79.60;;;;;;5030508;28;20042;-71
2022/05/04 07:53:58;;;;;;;10.38;1.77;;;10.20;81.00;;;;;;5032159;28;20077;-71
2022/05/04 07:56:24;;;;;;;5.18;2.17;;;10.00;78.30;;;;;;5031971;28;20045;-71
2022/05/04 07:58:50;;;;;;;6.63;2.25;;;10.20;75.30;;;;;;5031954;28;20047;-70
2022/05/04 08:04:18;;;;;;;10.48;2.50;;;10.50;72.90;;;;;;5032024;28;20529;-71
2022/05/04 08:06:45;;;;;;;9.25;1.85;;;10.60;74.80;;;;;;5030460;28;20033;-70
2022/05/04 08:09:10;;;;;;;6.22;2.10;;;10.70;75.10;;;;;;5031738;28;20046;-70
2022/05/04 08:11:36;;;;;;;5.82;1.90;;;10.60;72.70;;;;;;5031389;28;20041;-70
2022/05/04 08:14:01;;;;;;;6.68;2.45;;;10.90;73.90;;;;;;5029878;28;20041;-71
2022/05/04 08:16:27;;;;;;;5.22;1.90;;;11.00;73.40;;;;;;5031501;28;20411;-70
2022/05/04 08:18:53;;;;;;;9.60;2.55;;;11.10;71.70;;;;;;5030398;28;20084;-70
2022/05/04 08:21:19;;;;;;;6.38;1.90;;;11.20;71.50;;;;;;5031379;28;20491;-70
2022/05/04 08:23:45;;;;;;;7.10;2.40;;;11.40;71.20;;;;;;5031699;28;20049;-70
2022/05/04 08:26:12;;;;;;;7.25;2.35;;;11.40;71.30;;;;;;5031776;28;20120;-71
2022/05/04 08:28:38;;;;;;;7.18;2.40;;;11.40;68.90;;;;;;5030095;28;20491;-71
2022/05/04 08:31:05;;;;;;;11.10;2.45;;;11.60;72.10;;;;;;5031149;28;20116;-71
2022/05/04 08:33:30;;;;;;;12.50;3.05;;;12.10;70.90;;;;;;5030323;28;20046;-70
2022/05/04 08:35:56;;;;;;;6.20;1.83;;;12.40;69.50;;;;;;5035050;28;20059;-71
2022/05/04 08:38:22;;;;;;;4.53;1.75;;;12.50;67.20;;;;;;5038139;28;20566;-70
2022/05/04 08:40:49;;;;;;;5.95;2.25;;;12.60;66.30;;;;;;5037784;28;20087;-70
2022/05/04 08:43:18;;;;;;;6.00;1.80;;;12.40;64.80;;;;;;5038043;28;20060;-70
2022/05/04 08:45:45;;;;;;;6.20;2.05;;;12.20;64.40;;;;;;5038217;28;20108;-70
2022/05/04 08:48:12;;;;;;;11.10;2.15;;;11.90;63.00;;;;;;5036423;28;20086;-70
2022/05/04 08:50:39;;;;;;;9.15;2.30;;;11.80;64.80;;;;;;5037814;28;20037;-70
2022/05/04 08:53:05;;;;;;;9.00;2.47;;;11.80;63.90;;;;;;5038003;28;20041;-70
2022/05/04 08:55:31;;;;;;;12.13;2.67;;;11.90;63.40;;;;;;5037823;28;20034;-70
2022/05/04 08:57:57;;;;;;;7.10;1.90;;;11.90;64.10;;;;;;5038079;28;20095;-70
2022/05/04 09:00:23;;;;;;;8.85;2.55;;;12.10;64.00;;;;;;5036178;28;20450;-70
2022/05/04 09:02:49;;;;;;;7.05;2.67;;;11.80;64.30;;;;;;5037442;28;20514;-70
2022/05/04 09:05:21;;;;;;;5.13;2.03;;;11.90;65.80;;;;;;5037695;28;20053;-70
2022/05/04 09:07:49;;;;;;;10.20;2.25;;;11.90;66.90;;;;;;5037466;28;20487;-70
2022/05/04 09:10:16;;;;;;;5.97;2.25;;;11.50;65.00;;;;;;5035874;28;20728;-70
2022/05/04 09:12:43;;;;;;;10.07;2.45;;;11.30;65.20;;;;;;5037726;28;20033;-70
2022/05/04 09:15:24;;;;;;;6.28;1.98;;;11.60;66.80;;;;;;5037648;28;20478;-71
2022/05/04 09:18:07;;;;;;;8.48;2.78;;;11.70;66.30;;;;;;5037434;28;20048;-70
2022/05/04 09:20:48;;;;;;;10.85;2.75;;;11.80;67.50;;;;;;5037065;28;20047;-70
2022/05/04 09:23:31;;;;;;;11.93;2.30;;;11.80;69.00;;;;;;5037481;28;20529;-70
2022/05/04 09:25:57;;;;;;;9.68;2.30;;;11.50;64.70;;;;;;5037610;28;20096;-70
2022/05/04 09:28:25;;;;;;;3.75;2.00;;;11.80;66.30;;;;;;5037381;28;20087;-70
2022/05/04 09:30:52;;;;;;;8.48;2.20;;;12.00;66.10;;;;;;5035770;28;20037;-70
2022/05/04 09:33:21;;;;;;;5.95;2.03;;;12.30;66.20;;;;;;5037314;28;20140;-70
2022/05/04 09:35:47;;;;;;;11.20;2.35;;;12.50;64.20;;;;;;5037320;28;20043;-70
2022/05/04 09:46:46;;;;;;;5.63;2.20;;;12.30;63.20;;;;;;5036507;28;20104;-70
2022/05/04 09:49:16;;;;;;;12.57;3.35;;;12.30;64.30;;;;;;5033962;28;20461;-70
2022/05/04 09:51:51;;;;;;;8.10;2.15;;;12.50;64.20;;;;;;5033742;28;20051;-70
2022/05/04 09:54:27;;;;;;;9.70;2.53;;;13.00;64.10;;;;;;5033795;28;20041;-71
2022/05/04 09:56:59;;;;;;;10.60;2.35;;;13.60;63.60;;;;;;5032733;28;20034;-72
2022/05/04 09:59:26;;;;;;;9.77;1.95;;;13.90;61.00;;;;;;5032767;28;20421;-71
2022/05/04 10:01:53;;;;;;;7.05;2.30;;;13.30;59.40;;;;;;5033679;28;20037;-71
2022/05/04 10:04:25;;;;;;;7.63;2.30;;;12.90;60.70;;;;;;5032864;28;20196;-70
2022/05/04 10:06:53;;;;;;;9.43;2.22;;;12.50;61.50;;;;;;5033746;28;20147;-71
2022/05/04 10:09:20;;;;;;;8.02;2.30;;;12.40;60.90;;;;;;5033864;28;20574;-70
2022/05/04 10:11:46;;;;;;;8.77;2.08;;;12.40;61.70;;;;;;5033758;28;20073;-71
2022/05/04 10:14:15;;;;;;;6.90;2.55;;;12.50;62.60;;;;;;5034055;28;20037;-71
2022/05/04 10:16:43;;;;;;;4.82;2.50;;;12.20;61.20;;;;;;5032658;28;20034;-70
2022/05/04 10:19:17;;;;;;;6.68;2.63;;;12.50;63.60;;;;;;5033995;28;20041;-70
2022/05/04 10:21:43;;;;;;;;;;;12.80;64.00;;;;;;5033129;28;20072;-70
2022/05/04 10:24:10;;;;;;;6.57;2.10;;;13.00;62.20;;;;;;5032668;28;19917;-70
2022/05/04 10:26:37;;;;;;;5.47;2.13;;;13.20;63.50;;;;;;5033809;28;20068;-70
2022/05/04 10:32:48;;;;;;;7.35;2.47;;;13.30;60.20;;;;;;5033612;28;20045;-70
2022/05/04 10:35:13;;;;;;;10.10;2.60;;;13.30;57.80;;;;;;5032985;28;20049;-70
2022/05/04 10:38:18;;;;;;;9.02;2.33;;;13.50;59.30;;;;;;5033251;28;20414;-70
2022/05/04 10:41:00;;;;;;;6.55;2.40;;;13.70;60.90;;;;;;5014211;28;20060;-70
2022/05/04 10:43:43;;;;;;;6.95;2.25;;;13.70;59.30;;;;;;5033075;28;20061;-70
2022/05/04 10:46:13;;;;;;;;;;;13.40;58.20;;;;;;5033652;28;20455;-68
2022/05/04 10:48:51;;;;;;;10.05;2.95;;;13.70;59.90;;;;;;5032934;28;19921;-70
2022/05/04 10:51:28;;;;;;;7.00;2.83;;;13.10;58.00;;;;;;5033289;28;20033;-70
2022/05/04 10:54:19;;;;;;;8.07;2.50;;;13.30;60.00;;;;;;5033180;28;20487;-70
2022/05/04 10:56:49;;;;;;;8.40;2.63;;;13.50;61.00;;;;;;5032801;28;20048;-70
2022/05/04 10:59:41;;;;;;;9.23;2.80;;;13.30;59.30;;;;;;5032673;28;20045;-70
2022/05/04 11:02:12;;;;;;;10.52;3.03;;;13.30;59.30;;;;;;5030170;28;20085;-71
2022/05/04 11:04:40;;;;;;;6.15;2.67;;;12.70;58.20;;;;;;5033534;28;20044;-70
2022/05/04 11:07:07;;;;;;;6.13;2.47;;;13.00;59.40;;;;;;5034088;28;20672;-70
2022/05/04 11:09:43;;;;;;;8.05;2.75;;;13.40;59.20;;;;;;5015004;28;20041;-70
2022/05/04 11:12:10;;;;;;;7.13;2.55;;;13.40;58.30;;;;;;5031228;28;20503;-70
2022/05/04 11:14:36;;;;;;;7.95;2.83;;;13.20;58.40;;;;;;5032921;28;20116;-70
2022/05/04 11:17:10;;;;;;;9.15;3.35;;;13.40;60.50;;;;;;5031543;28;20073;-69
2022/05/04 11:19:40;;;;;;;8.60;2.97;;;13.50;60.40;;;;;;5031436;28;20077;-68
2022/05/04 11:22:08;;;;;;;6.75;2.80;;;13.50;60.50;;;;;;5032527;28;20056;-67
2022/05/04 11:24:34;;;;;;;6.90;2.55;;;13.60;59.00;;;;;;5032672;28;20095;-68
2022/05/04 11:26:59;;;;;;;10.68;2.95;;;13.80;59.50;;;;;;5032519;28;20041;-68
2022/05/04 11:29:27;;;;;;;6.90;2.90;;;13.70;59.10;;;;;;5032310;28;20041;-67
2022/05/04 11:31:56;;;;;;;6.85;3.10;;;13.80;58.10;;;;;;5032056;28;20095;-68
2022/05/04 11:34:36;;;;;;;10.88;3.67;;;13.70;57.80;;;;;;5032621;28;20069;-68
2022/05/04 11:37:08;;;;;;;7.60;2.63;;;13.40;56.70;;;;;;5032391;28;20066;-68
2022/05/04 11:39:34;;;;;;;7.00;2.92;;;13.30;57.50;;;;;;5032267;28;20048;-68
2022/05/04 11:42:02;;;;;;;8.73;2.97;;;13.20;57.70;;;;;;5031723;28;20116;-68
2022/05/04 11:44:29;;;;;;;5.63;2.88;;;13.30;59.00;;;;;;5030806;28;20113;-66
2022/05/04 11:46:57;;;;;;;17.88;3.90;;;13.30;59.20;;;;;;5030213;28;20045;-69
2022/05/04 11:49:25;;;;;;;6.10;2.53;;;13.60;58.30;;;;;;5065194;22;20052;-71
2022/05/04 11:51:52;;;;;;;5.35;2.35;;;14.10;58.00;;;;;;5051138;28;20040;-71
2022/05/04 11:54:18;;;;;;;7.20;3.38;;;14.10;57.80;;;;;;5051559;28;20441;-70
2022/05/04 11:56:44;;;;;;;8.02;2.70;;;14.20;56.80;;;;;;5049617;28;20033;-70
2022/05/04 11:59:10;;;;;;;5.57;2.10;;;14.30;56.60;;;;;;5038404;28;20419;-71
2022/05/04 12:01:38;;;;;;;6.32;2.75;;;14.50;56.40;;;;;;5031444;28;20030;-72
2022/05/04 12:04:05;;;;;;;5.75;2.47;;;14.60;55.90;;;;;;5031318;28;20048;-71
2022/05/04 12:06:32;;;;;;;8.45;2.90;;;14.70;58.20;;;;;;5031525;28;20087;-70
2022/05/04 12:08:59;;;;;;;10.40;2.83;;;14.70;55.90;;;;;;5031099;28;20510;-70
2022/05/04 12:11:25;;;;;;;6.85;2.80;;;14.70;55.40;;;;;;5030890;28;20045;-70
2022/05/04 12:13:52;;;;;;;10.07;2.88;;;14.40;54.60;;;;;;5030366;28;20037;-71
2022/05/04 12:16:18;;;;;;;6.85;3.08;;;14.50;53.90;;;;;;5031320;28;20038;-70
2022/05/04 12:18:44;;;;;;;7.85;2.97;;;14.70;53.90;;;;;;5031255;28;21450;-70
2022/05/04 12:21:12;;;;;;;8.43;2.78;;;14.40;54.50;;;;;;5028540;28;20491;-70
2022/05/04 12:23:40;;;;;;;8.57;2.67;;;14.60;56.70;;;;;;5031297;28;20095;-70
2022/05/04 12:26:07;;;;;;;8.38;2.85;;;14.70;56.90;;;;;;5030036;28;20041;-70
2022/05/04 12:28:33;;;;;;;7.97;2.60;;;14.50;54.30;;;;;;5031220;28;20049;-70
2022/05/04 12:33:48;;;;;;;9.10;3.15;;;14.70;55.50;;;;;;5031158;28;20041;-71
2022/05/04 12:36:15;;;;;;;6.78;3.35;;;14.60;54.10;;;;;;5031765;28;20042;-70
2022/05/04 12:38:46;;;;;;;7.60;2.97;;;14.70;54.30;;;;;;5030270;28;20048;-70
2022/05/04 12:41:15;;;;;;;10.00;3.53;;;14.60;55.10;;;;;;5031088;28;20048;-71
2022/05/04 12:43:40;;;;;;;9.85;2.97;;;14.40;55.30;;;;;;5030884;28;20538;-70
2022/05/04 12:46:11;;;;;;;8.00;2.75;;;14.50;55.00;;;;;;5031791;28;20077;-70
2022/05/04 12:48:39;;;;;;;8.18;3.05;;;14.70;56.40;;;;;;5029999;28;20087;-70
2022/05/04 12:51:07;;;;;;;7.22;3.15;;;14.60;56.00;;;;;;5031317;28;20064;-70
2022/05/04 12:53:33;;;;;;;7.32;2.50;;;14.80;56.20;;;;;;5031521;28;20041;-70
2022/05/04 12:58:43;;;;;;;8.55;2.80;;;14.70;54.40;;;;;;5030235;28;20049;-70
2022/05/04 13:01:09;;;;;;;7.80;2.88;;;14.50;53.90;;;;;;5030923;28;20037;-70
2022/05/04 13:03:35;;;;;;;5.90;2.58;;;14.60;54.50;;;;;;5024221;28;20047;-70
2022/05/04 13:06:01;;;;;;;7.20;2.63;;;14.20;54.90;;;;;;5020196;28;20410;-70
2022/05/04 13:08:26;;;;;;;9.15;3.20;;;14.60;55.30;;;;;;5028074;28;20053;-70
2022/05/04 13:10:53;;;;;;;6.70;3.05;;;14.70;56.10;;;;;;5022725;28;20046;-70
2022/05/04 13:13:21;;;;;;;4.15;3.38;;;15.00;56.40;;;;;;5030570;28;20435;-70
2022/05/04 13:15:47;;;;;;;7.07;3.50;;;15.00;55.40;;;;;;5030742;28;20602;-71
2022/05/04 13:18:13;;;;;;;6.20;3.03;;;15.10;56.00;;;;;;5029968;28;20038;-70
2022/05/04 13:20:40;;;;;;;6.13;2.85;;;15.40;56.20;;;;;;5030949;28;20116;-70
2022/05/04 13:23:09;;;;;;;7.90;2.95;;;15.40;55.50;;;;;;5034448;28;20826;-70
2022/05/04 13:25:35;;;;;;;5.82;2.83;;;15.60;54.70;;;;;;5035157;28;20041;-71
2022/05/04 13:28:01;;;;;;;10.63;2.70;;;15.60;54.20;;;;;;5035104;28;20116;-71
2022/05/04 13:30:27;;;;;;;10.13;3.15;;;15.70;54.40;;;;;;5033358;28;20478;-71